Time;durP1;ratioP1;P1;durP2;ratioP2;P2;SDS_P1;SDS_P2;PMS_P1;PMS_P2;Temp;Humidity;BMP_temperature;BMP_pressure;BME280_temperature;BME280_humidity;BME280_pressure;Samples;Min_cycle;Max_cycle;Signal;HPM_P1;HPM_P2
2021/09/09 04:17:37;;;;;;;19.20;12.35;;;;;;;13.96;100.00;98431.03;4933485;29;20765;-75
2021/09/09 04:20:03;;;;;;;16.98;12.40;;;;;;;13.97;100.00;98429.28;4936026;29;20035;-75
2021/09/09 04:22:28;;;;;;;17.55;13.30;;;;;;;13.86;100.00;98430.53;4935904;29;20115;-75
2021/09/09 04:24:54;;;;;;;15.18;11.73;;;;;;;13.94;100.00;98435.47;4935916;29;20067;-75
2021/09/09 04:27:22;;;;;;;17.17;12.30;;;;;;;13.83;100.00;98435.03;4935784;29;20031;-75
2021/09/09 04:29:50;;;;;;;23.00;13.25;;;;;;;13.81;100.00;98439.44;4977462;23;20018;-72
2021/09/09 04:32:16;;;;;;;16.20;12.77;;;;;;;13.79;100.00;98433.44;4968592;28;20048;-71
2021/09/09 04:34:42;;;;;;;18.30;13.52;;;;;;;13.73;100.00;98433.63;4962775;28;20039;-72
2021/09/09 04:37:07;;;;;;;18.25;12.57;;;;;;;13.70;100.00;98428.56;4953569;29;20023;-73
2021/09/09 04:39:32;;;;;;;17.80;12.75;;;;;;;13.68;100.00;98430.34;4953626;28;20031;-73
2021/09/09 04:41:58;;;;;;;16.90;13.25;;;;;;;13.69;100.00;98437.28;4934218;29;20035;-73
2021/09/09 04:44:24;;;;;;;17.75;12.55;;;;;;;13.70;100.00;98438.97;4935571;29;20047;-73
2021/09/09 04:46:49;;;;;;;17.73;12.93;;;;;;;13.62;100.00;98437.47;4934515;29;20366;-73
2021/09/09 04:49:15;;;;;;;19.88;13.43;;;;;;;13.64;100.00;98437.44;4935611;29;20036;-73
2021/09/09 04:51:40;;;;;;;16.77;13.23;;;;;;;13.62;100.00;98440.09;4951000;29;20026;-73
2021/09/09 04:54:06;;;;;;;13.43;11.60;;;;;;;13.72;100.00;98437.16;4954936;28;20015;-73
2021/09/09 04:56:31;;;;;;;19.88;13.93;;;;;;;13.70;100.00;98441.56;4954616;28;20023;-73
2021/09/09 04:58:57;;;;;;;15.27;12.50;;;;;;;13.77;100.00;98448.25;4954615;28;20070;-73
2021/09/09 05:01:23;;;;;;;16.10;12.57;;;;;;;13.73;100.00;98439.72;4968907;28;20023;-73
2021/09/09 05:03:48;;;;;;;23.20;12.70;;;;;;;13.74;100.00;98443.16;4944813;28;20105;-73
2021/09/09 05:06:14;;;;;;;17.88;12.38;;;;;;;13.80;100.00;98442.94;4937459;29;20019;-73
2021/09/09 05:08:39;;;;;;;15.90;11.98;;;;;;;13.77;100.00;98445.66;4946915;28;20542;-74
2021/09/09 05:11:09;;;;;;;16.80;11.80;;;;;;;13.87;100.00;98452.22;4947397;28;20461;-73
2021/09/09 05:13:34;;;;;;;15.05;12.50;;;;;;;13.95;99.91;98444.13;4945773;29;20488;-74
2021/09/09 05:15:59;;;;;;;15.13;12.90;;;;;;;13.99;99.61;98440.50;4939142;29;20085;-72
2021/09/09 05:18:24;;;;;;;20.42;11.57;;;;;;;13.97;99.05;98442.31;4950805;29;20029;-72
2021/09/09 05:20:50;;;;;;;14.93;11.82;;;;;;;14.03;99.32;98448.16;4952982;28;20376;-73
2021/09/09 05:23:15;;;;;;;16.88;12.90;;;;;;;13.94;99.70;98453.69;4950238;29;20027;-73
2021/09/09 05:25:41;;;;;;;15.70;12.35;;;;;;;14.02;99.43;98443.84;4946279;29;20106;-72
2021/09/09 05:28:06;;;;;;;14.40;12.35;;;;;;;13.99;99.30;98440.50;4943537;29;20027;-73
2021/09/09 05:30:31;;;;;;;20.80;12.40;;;;;;;14.01;99.66;98442.13;4940507;28;20039;-73
2021/09/09 05:32:57;;;;;;;18.58;12.93;;;;;;;14.15;98.48;98447.69;4946357;29;20127;-73
2021/09/09 05:35:22;;;;;;;13.07;11.00;;;;;;;14.17;98.45;98454.59;4941081;28;20016;-73
2021/09/09 05:37:47;;;;;;;22.38;12.57;;;;;;;14.23;98.12;98462.19;4942150;29;20448;-73
2021/09/09 05:40:13;;;;;;;18.58;11.70;;;;;;;14.23;97.83;98457.81;4943004;28;20481;-73
2021/09/09 05:42:39;;;;;;;17.38;11.07;;;;;;;14.29;97.20;98459.34;4948442;29;20407;-73
2021/09/09 05:45:05;;;;;;;17.73;11.43;;;;;;;14.29;96.76;98459.34;4937424;28;20063;-73
2021/09/09 05:47:30;;;;;;;14.10;12.32;;;;;;;14.38;96.59;98459.00;4948762;28;20110;-73
2021/09/09 05:49:55;;;;;;;15.68;11.77;;;;;;;14.46;95.58;98463.94;4943037;28;20102;-72
2021/09/09 05:52:21;;;;;;;18.83;11.82;;;;;;;14.46;95.54;98462.16;4953629;28;20027;-73
2021/09/09 05:54:46;;;;;;;14.55;10.85;;;;;;;14.60;94.83;98467.72;4936890;29;20489;-73
2021/09/09 05:57:12;;;;;;;14.40;11.23;;;;;;;14.81;93.54;98467.78;4950461;29;20446;-73
2021/09/09 05:59:37;;;;;;;16.20;11.00;;;;;;;14.92;92.96;98473.41;4943861;28;20027;-74
2021/09/09 06:02:12;;;;;;;17.45;11.52;;;;;;;15.15;91.35;98468.09;4963772;28;20082;-73
2021/09/09 06:04:37;;;;;;;14.07;10.25;;;;;;;15.28;90.50;98472.78;4948208;29;20082;-73
2021/09/09 06:07:03;;;;;;;14.10;10.57;;;;;;;15.45;89.80;98475.53;4941310;28;20027;-73
2021/09/09 06:09:28;;;;;;;14.80;10.38;;;;;;;16.23;86.60;98463.44;4951418;29;20038;-73
2021/09/09 06:11:54;;;;;;;16.92;9.77;;;;;;;16.55;84.00;98473.25;4941230;29;20024;-74
2021/09/09 06:14:19;;;;;;;14.00;10.13;;;;;;;17.07;82.40;98468.16;4949929;29;20381;-74
2021/09/09 06:16:45;;;;;;;13.02;10.45;;;;;;;17.60;78.03;98464.63;4942333;28;20023;-73
2021/09/09 06:19:10;;;;;;;17.25;9.43;;;;;;;18.31;74.39;98458.28;4953707;29;20102;-73
2021/09/09 06:21:35;;;;;;;12.65;8.98;;;;;;;18.89;72.57;98460.31;4954529;29;20019;-73
2021/09/09 06:24:01;;;;;;;12.82;8.93;;;;;;;19.23;71.66;98457.41;4948161;28;20019;-73
2021/09/09 06:26:26;;;;;;;10.60;8.55;;;;;;;19.76;68.96;98458.69;4950747;29;20122;-74
2021/09/09 06:28:52;;;;;;;10.00;8.52;;;;;;;19.85;68.09;98459.06;4939371;28;20544;-73
2021/09/09 06:31:17;;;;;;;10.90;7.82;;;;;;;20.69;65.68;98462.53;4953420;28;20023;-73
2021/09/09 06:33:42;;;;;;;12.52;7.95;;;;;;;21.20;63.91;98465.38;4941072;29;20469;-73
2021/09/09 06:36:08;;;;;;;10.95;7.90;;;;;;;22.12;61.43;98468.88;4945694;29;20481;-73
2021/09/09 06:38:33;;;;;;;11.77;8.88;;;;;;;21.23;61.84;98469.59;4951523;29;20023;-73
2021/09/09 06:40:59;;;;;;;10.00;8.10;;;;;;;20.37;65.69;98479.53;4940420;28;20392;-73
2021/09/09 06:43:24;;;;;;;13.50;7.55;;;;;;;21.19;64.28;98470.75;4952494;28;20020;-73
2021/09/09 06:45:49;;;;;;;17.52;8.88;;;;;;;20.22;65.68;98482.16;4945318;29;20027;-74
2021/09/09 06:48:15;;;;;;;11.38;9.10;;;;;;;20.33;65.28;98478.03;4945909;28;20020;-73
2021/09/09 06:50:41;;;;;;;14.73;8.35;;;;;;;21.45;62.63;98474.31;4951620;28;20118;-73
2021/09/09 06:53:07;;;;;;;11.18;8.07;;;;;;;22.96;58.10;98468.94;4954559;28;20038;-73
2021/09/09 06:55:32;;;;;;;13.52;8.35;;;;;;;23.24;56.98;98477.47;4943078;28;20460;-74
2021/09/09 06:57:58;;;;;;;17.42;7.88;;;;;;;22.66;57.41;98473.81;4956707;28;20035;-73
2021/09/09 07:00:24;;;;;;;15.02;8.73;;;;;;;20.83;63.72;98481.88;4944382;28;20384;-72
2021/09/09 07:02:49;;;;;;;10.50;8.43;;;;;;;20.02;67.77;98479.94;4949670;29;20057;-73
2021/09/09 07:05:15;;;;;;;14.95;9.43;;;;;;;19.77;68.87;98481.44;4946525;29;20019;-73
2021/09/09 07:07:40;;;;;;;16.63;9.18;;;;;;;19.99;68.11;98475.69;4948847;29;20019;-73
2021/09/09 07:10:08;;;;;;;15.02;9.57;;;;;;;20.22;67.64;98471.66;4946139;28;20519;-73
2021/09/09 07:12:33;;;;;;;11.80;8.73;;;;;;;20.59;67.22;98474.59;4953189;28;20051;-73
2021/09/09 07:14:58;;;;;;;15.38;9.10;;;;;;;19.95;69.56;98468.09;4922817;29;20057;-74
2021/09/09 07:17:24;;;;;;;14.10;8.73;;;;;;;20.00;69.55;98472.13;4956466;28;20035;-73
2021/09/09 07:19:49;;;;;;;13.55;9.20;;;;;;;20.57;66.92;98476.50;4951073;28;20115;-73
2021/09/09 07:22:14;;;;;;;16.75;9.00;;;;;;;22.71;60.68;98467.22;4956209;28;20353;-73
2021/09/09 07:24:40;;;;;;;10.93;8.07;;;;;;;23.42;57.36;98477.91;4941367;28;20508;-73
2021/09/09 07:27:05;;;;;;;11.25;8.13;;;;;;;25.03;52.49;98464.31;4951195;29;20078;-73
2021/09/09 07:29:30;;;;;;;8.65;7.68;;;;;;;26.09;49.14;98463.38;4940039;28;20050;-73
2021/09/09 07:31:56;;;;;;;12.52;7.95;;;;;;;26.47;48.99;98461.88;4945165;29;20041;-72
2021/09/09 07:34:21;;;;;;;19.20;7.57;;;;;;;25.43;50.93;98462.81;4941226;29;20082;-73
2021/09/09 07:36:47;;;;;;;10.60;7.63;;;;;;;25.02;51.32;98467.94;4938690;28;20038;-73
2021/09/09 07:39:12;;;;;;;14.63;7.82;;;;;;;24.96;53.03;98478.22;4950748;29;20024;-73
2021/09/09 07:41:37;;;;;;;15.23;7.55;;;;;;;26.58;49.02;98465.25;4939859;29;20023;-73
2021/09/09 07:44:03;;;;;;;12.52;7.28;;;;;;;27.18;46.82;98470.56;4945651;28;20032;-73
2021/09/09 07:46:30;;;;;;;13.55;7.43;;;;;;;26.30;49.48;98464.19;4948812;29;20559;-73
2021/09/09 07:48:56;;;;;;;9.85;7.25;;;;;;;28.52;44.76;98465.03;4938311;29;20038;-73
2021/09/09 07:51:22;;;;;;;9.85;7.05;;;;;;;29.58;41.80;98478.63;4955418;28;20090;-73
2021/09/09 07:53:48;;;;;;;9.90;6.07;;;;;;;30.18;41.57;98476.06;4948326;28;20489;-73
2021/09/09 07:56:14;;;;;;;12.95;6.43;;;;;;;30.28;40.31;98471.41;4947282;29;20171;-73
2021/09/09 07:58:39;;;;;;;8.25;6.60;;;;;;;31.48;38.16;98484.47;4939500;29;20236;-74
2021/09/09 08:01:05;;;;;;;9.30;6.75;;;;;;;29.49;41.31;98491.03;4952032;28;20027;-74
2021/09/09 08:03:30;;;;;;;8.50;6.40;;;;;;;28.27;44.82;98487.88;4938931;28;20473;-74
2021/09/09 08:05:56;;;;;;;17.48;7.03;;;;;;;29.29;42.92;98484.19;4945938;29;20462;-74
2021/09/09 08:08:21;;;;;;;8.75;6.50;;;;;;;27.89;45.72;98489.66;4939364;29;20032;-74
2021/09/09 08:10:47;;;;;;;8.93;6.32;;;;;;;27.20;48.19;98487.22;4949991;28;20026;-74
2021/09/09 08:13:12;;;;;;;9.90;6.45;;;;;;;28.88;44.39;98491.78;4947901;29;20116;-74
2021/09/09 08:15:38;;;;;;;7.43;6.35;;;;;;;27.53;45.53;98493.91;4942295;29;20019;-74
2021/09/09 08:18:04;;;;;;;11.48;7.38;;;;;;;26.70;49.02;98495.25;4945722;28;20023;-74
2021/09/09 08:20:29;;;;;;;11.93;6.60;;;;;;;28.94;43.95;98480.50;4948518;28;20027;-74
2021/09/09 08:22:55;;;;;;;10.80;6.82;;;;;;;30.05;41.06;98486.28;4954340;28;20027;-74
2021/09/09 08:25:20;;;;;;;11.60;6.38;;;;;;;29.96;40.90;98494.25;4939793;29;20019;-74
2021/09/09 08:27:46;;;;;;;12.02;6.25;;;;;;;30.27;39.08;98490.28;4947888;28;20027;-74
2021/09/09 08:30:11;;;;;;;9.23;5.55;;;;;;;32.03;37.56;98484.75;4944856;28;20035;-74
2021/09/09 08:32:37;;;;;;;8.93;4.95;;;;;;;33.48;34.18;98489.59;4941377;28;20059;-74
2021/09/09 08:35:03;;;;;;;6.47;4.90;;;;;;;31.50;36.96;98494.16;4947262;29;20381;-74
2021/09/09 08:37:28;;;;;;;6.95;4.80;;;;;;;30.61;37.69;98490.28;4940667;29;20034;-74
2021/09/09 08:39:53;;;;;;;11.95;5.18;;;;;;;30.47;37.88;98491.72;4946510;28;20473;-74
2021/09/09 08:42:19;;;;;;;7.60;5.30;;;;;;;32.04;34.83;98497.97;4946507;29;20547;-74
2021/09/09 08:44:46;;;;;;;6.13;5.03;;;;;;;34.65;31.93;98489.91;4939660;28;20437;-74
2021/09/09 08:47:11;;;;;;;6.97;5.32;;;;;;;36.73;27.87;98495.81;4951374;29;20092;-74
2021/09/09 08:49:37;;;;;;;11.98;5.50;;;;;;;36.50;27.24;98502.38;4941394;28;20114;-74
2021/09/09 08:52:05;;;;;;;6.47;5.45;;;;;;;36.01;28.34;98506.00;4954382;28;20059;-74
2021/09/09 08:54:34;;;;;;;5.50;4.47;;;;;;;37.40;26.03;98503.13;4941254;28;20516;-74
2021/09/09 08:56:59;;;;;;;;;;;;;;;34.53;29.78;98507.56;4951300;29;20039;-74
2021/09/09 08:59:25;;;;;;;7.65;4.90;;;;;;;31.75;33.41;98509.22;4939638;28;19918;-74
2021/09/09 09:02:05;;;;;;;5.10;4.53;;;;;;;31.15;35.01;98507.66;4946014;29;20031;-74
2021/09/09 09:04:32;;;;;;;6.32;4.65;;;;;;;32.49;32.78;98508.09;4943489;29;20028;-74
2021/09/09 09:06:58;;;;;;;9.85;4.88;;;;;;;34.16;30.70;98504.75;4937062;29;20032;-74
2021/09/09 09:09:24;;;;;;;5.85;4.40;;;;;;;34.80;29.77;98498.78;4950061;28;20027;-74
2021/09/09 09:11:51;;;;;;;8.13;4.38;;;;;;;33.86;30.37;98500.34;4938024;29;20027;-74
2021/09/09 09:14:22;;;;;;;4.75;4.07;;;;;;;34.46;30.10;98502.09;4946409;29;20019;-74
2021/09/09 09:16:50;;;;;;;5.80;4.43;;;;;;;34.84;28.88;98505.47;4938353;28;20461;-74
2021/09/09 09:19:19;;;;;;;11.50;4.32;;;;;;;34.82;28.95;98507.53;4950906;29;20438;-74
2021/09/09 09:21:46;;;;;;;;;;;;;;;34.84;29.36;98500.06;4952847;29;20031;-74
2021/09/09 09:24:18;;;;;;;6.90;4.47;;;;;;;35.46;29.30;98504.09;4943337;29;19922;-74
2021/09/09 09:27:04;;;;;;;7.18;4.72;;;;;;;35.78;28.00;98508.06;4949392;28;20027;-74
2021/09/09 09:29:30;;;;;;;8.15;4.28;;;;;;;34.92;29.06;98505.34;4934083;29;20511;-74
2021/09/09 09:32:15;;;;;;;4.68;4.10;;;;;;;33.49;30.99;98510.91;4934288;29;20034;-74
2021/09/09 09:34:42;;;;;;;8.13;4.55;;;;;;;34.94;29.42;98506.00;4944445;29;20023;-74
2021/09/09 09:37:08;;;;;;;11.27;4.97;;;;;;;35.55;28.92;98510.19;4938168;28;20027;-74
2021/09/09 09:39:34;;;;;;;12.75;7.20;;;;;;;33.46;31.52;98513.97;4947607;28;20386;-74
2021/09/09 09:42:05;;;;;;;6.53;4.20;;;;;;;31.23;35.30;98514.84;4943594;29;20307;-74
2021/09/09 09:44:40;;;;;;;9.07;4.93;;;;;;;32.74;32.96;98516.88;4940644;28;20034;-72
2021/09/09 09:47:20;;;;;;;6.97;4.63;;;;;;;33.50;32.02;98506.34;4950439;29;20388;-72
2021/09/09 09:49:55;;;;;;;5.60;4.43;;;;;;;34.99;29.71;98502.75;4940957;28;20551;-73
2021/09/09 09:52:29;;;;;;;6.95;4.05;;;;;;;36.66;26.70;98506.63;4952311;29;20027;-74
2021/09/09 09:54:56;;;;;;;7.05;3.90;;;;;;;36.22;28.43;98505.13;4936379;29;20114;-74
2021/09/09 09:57:23;;;;;;;7.50;3.78;;;;;;;38.09;25.52;98496.44;4949743;28;20490;-74
2021/09/09 09:59:49;;;;;;;6.15;3.30;;;;;;;38.04;25.22;98496.25;4941748;28;20031;-74
2021/09/09 10:02:14;;;;;;;5.80;4.10;;;;;;;39.45;23.54;98490.03;4943011;28;20031;-74
2021/09/09 10:04:45;;;;;;;5.28;4.13;;;;;;;37.71;24.99;98498.94;4944379;29;20414;-74
2021/09/09 10:07:12;;;;;;;4.72;3.97;;;;;;;35.59;28.10;98493.44;4937646;28;20027;-73
2021/09/09 10:09:38;;;;;;;6.75;4.30;;;;;;;34.71;28.82;98495.34;4947433;28;20035;-74
2021/09/09 10:12:08;;;;;;;5.43;4.13;;;;;;;34.65;28.98;98495.28;4936630;29;20028;-74
2021/09/09 10:14:38;;;;;;;7.32;4.07;;;;;;;34.66;29.52;98496.94;4948003;29;20064;-74
2021/09/09 10:17:04;;;;;;;11.60;4.47;;;;;;;33.54;30.48;98490.72;4936149;29;20366;-74
2021/09/09 10:19:31;;;;;;;12.85;4.80;;;;;;;33.05;31.50;98491.06;4948401;28;20027;-74
2021/09/09 10:22:11;;;;;;;9.10;5.13;;;;;;;34.68;29.72;98490.38;4952065;29;20026;-74
2021/09/09 10:24:39;;;;;;;7.78;5.00;;;;;;;33.69;30.23;98496.97;4939100;28;20385;-74
2021/09/09 10:27:16;;;;;;;8.07;5.30;;;;;;;31.72;33.40;98493.50;4950156;29;20027;-74
2021/09/09 10:29:45;;;;;;;8.52;4.45;;;;;;;32.52;32.95;98490.81;4941052;28;20436;-73
2021/09/09 10:32:36;;;;;;;7.15;4.95;;;;;;;32.92;31.31;98483.56;5003220;23;20043;-76
2021/09/09 10:35:17;;;;;;;10.48;4.35;;;;;;;33.94;30.57;98487.69;4952241;28;20039;-76
2021/09/09 10:37:47;;;;;;;6.55;5.90;;;;;;;34.80;29.84;98482.63;4965576;28;20477;-76
2021/09/09 10:40:27;;;;;;;10.35;4.15;;;;;;;33.08;32.26;98491.53;4963998;28;20118;-76
2021/09/09 10:42:53;;;;;;;9.00;4.88;;;;;;;33.55;31.53;98487.00;4956396;28;20038;-76
2021/09/09 10:45:33;;;;;;;6.38;4.53;;;;;;;33.76;31.28;98484.47;4970708;28;20027;-76
2021/09/09 10:48:03;;;;;;;7.55;4.50;;;;;;;33.98;30.75;98490.81;4965597;28;20054;-76
2021/09/09 10:50:29;;;;;;;5.60;4.32;;;;;;;34.60;30.29;98481.56;4970537;28;20105;-76
2021/09/09 10:52:59;;;;;;;8.55;4.70;;;;;;;33.80;31.49;98475.03;4973522;28;20412;-76
2021/09/09 10:55:26;;;;;;;5.75;4.38;;;;;;;35.03;30.69;98474.41;4960831;28;20499;-76
2021/09/09 10:58:20;;;;;;;7.78;4.32;;;;;;;34.16;30.96;98472.47;4967418;28;20027;-76
2021/09/09 11:00:57;;;;;;;10.45;8.43;;;;;;;34.04;31.58;98481.19;4971494;28;20157;-76
2021/09/09 11:03:42;;;;;;;5.05;4.57;;;;;;;33.67;31.67;98475.66;4959343;28;20058;-76
2021/09/09 11:06:18;;;;;;;5.53;4.93;;;;;;;33.38;33.06;98476.38;4966455;28;20030;-75
2021/09/09 11:08:46;;;;;;;7.38;4.28;;;;;;;33.25;33.44;98465.38;4960584;28;20436;-76
2021/09/09 11:11:19;;;;;;;8.00;5.07;;;;;;;33.32;31.95;98466.34;4972065;28;20054;-76
2021/09/09 11:13:44;;;;;;;5.47;4.32;;;;;;;33.36;32.33;98466.81;4956397;28;20042;-76
2021/09/09 11:16:24;;;;;;;6.18;4.45;;;;;;;32.87;33.22;98461.75;4956346;29;20026;-76
2021/09/09 11:18:50;;;;;;;6.97;5.57;;;;;;;34.28;30.60;98454.00;4971773;28;20038;-76
2021/09/09 11:21:20;;;;;;;6.63;4.20;;;;;;;32.64;32.64;98464.44;4969847;28;20463;-76
2021/09/09 11:23:47;;;;;;;7.78;4.07;;;;;;;33.49;31.49;98451.78;4968348;28;20034;-76
2021/09/09 11:26:20;;;;;;;5.70;4.22;;;;;;;33.20;31.88;98454.34;4966609;28;20045;-76
2021/09/09 11:28:47;;;;;;;7.03;3.97;;;;;;;35.37;28.78;98451.31;4959961;28;20027;-76
2021/09/09 11:31:17;;;;;;;7.40;4.20;;;;;;;35.60;28.88;98451.13;4970929;28;20152;-76
2021/09/09 11:33:52;;;;;;;7.15;4.28;;;;;;;35.32;29.35;98449.22;4970801;28;20019;-76
2021/09/09 11:36:19;;;;;;;8.82;4.10;;;;;;;35.65;28.88;98451.38;4967367;28;20033;-76
2021/09/09 11:38:45;;;;;;;8.35;4.10;;;;;;;35.03;29.27;98445.63;4960056;28;20031;-76
2021/09/09 11:41:13;;;;;;;8.90;4.03;;;;;;;34.47;30.20;98450.75;4971546;28;20077;-76
2021/09/09 11:43:54;;;;;;;7.57;4.18;;;;;;;34.49;30.97;98443.34;4961551;28;20517;-76
2021/09/09 11:46:29;;;;;;;6.28;4.55;;;;;;;34.50;29.52;98445.00;4963339;28;20043;-76
2021/09/09 11:48:59;;;;;;;6.90;3.50;;;;;;;34.90;29.84;98445.44;4971588;28;20026;-76
2021/09/09 11:51:35;;;;;;;8.30;3.88;;;;;;;32.42;32.77;98445.41;4970640;28;20045;-76
2021/09/09 11:54:01;;;;;;;7.38;3.20;;;;;;;34.07;30.05;98443.16;4964979;28;20058;-76
2021/09/09 11:56:27;;;;;;;6.38;4.00;;;;;;;34.48;30.48;98439.00;4967873;28;20435;-76
2021/09/09 11:58:53;;;;;;;12.27;3.83;;;;;;;34.60;29.70;98438.50;4958866;28;20114;-76
2021/09/09 12:01:19;;;;;;;5.13;4.45;;;;;;;34.31;29.41;98440.19;4971056;28;20023;-76
2021/09/09 12:03:45;;;;;;;5.50;4.10;;;;;;;32.66;32.04;98446.31;4970397;28;20082;-76
2021/09/09 12:06:12;;;;;;;5.13;3.63;;;;;;;33.15;33.19;98437.94;4965316;28;20026;-75
2021/09/09 12:08:39;;;;;;;5.07;3.95;;;;;;;31.36;34.69;98445.63;4960615;28;20033;-75
2021/09/09 12:11:06;;;;;;;8.80;4.78;;;;;;;29.84;37.54;98442.09;4971099;28;20023;-75
2021/09/09 12:13:33;;;;;;;6.20;4.00;;;;;;;29.40;37.77;98444.78;4973611;28;20044;-75
2021/09/09 12:16:16;;;;;;;4.13;3.72;;;;;;;29.98;37.40;98437.13;4965125;28;20361;-74
2021/09/09 12:18:46;;;;;;;6.32;4.03;;;;;;;29.35;38.15;98447.06;4969770;28;20472;-75
2021/09/09 12:21:24;;;;;;;11.27;4.07;;;;;;;29.57;38.23;98431.56;4969182;28;20046;-75
2021/09/09 12:24:20;;;;;;;5.97;4.13;;;;;;;29.81;37.86;98437.06;4966933;28;20019;-75
2021/09/09 12:27:00;;;;;;;6.18;3.90;;;;;;;29.78;37.67;98436.53;4968996;28;20077;-75
2021/09/09 12:29:35;;;;;;;5.93;4.35;;;;;;;29.39;37.60;98443.06;4959511;28;20023;-75
2021/09/09 12:32:00;;;;;;;6.82;4.78;;;;;;;28.61;39.40;98439.31;4968751;28;20026;-75
2021/09/09 12:34:25;;;;;;;5.85;3.75;;;;;;;28.79;39.03;98440.19;4965849;28;20025;-75
2021/09/09 12:36:51;;;;;;;7.10;3.50;;;;;;;28.55;39.34;98432.75;4970832;28;20085;-75
2021/09/09 12:39:19;;;;;;;6.72;4.03;;;;;;;28.80;39.08;98436.53;4957710;28;20376;-75
2021/09/09 12:41:46;;;;;;;7.32;4.38;;;;;;;28.52;38.98;98437.53;4966793;28;20038;-75
2021/09/09 12:44:17;;;;;;;6.07;4.30;;;;;;;28.78;39.65;98435.84;4965211;28;20049;-75
2021/09/09 12:46:50;;;;;;;4.38;3.97;;;;;;;29.08;38.22;98433.81;4959361;28;20027;-75
2021/09/09 12:49:22;;;;;;;6.05;4.50;;;;;;;28.97;37.55;98431.41;4969899;28;20055;-75
2021/09/09 12:51:50;;;;;;;5.15;4.25;;;;;;;28.72;38.40;98428.47;4972485;28;20095;-75
2021/09/09 12:54:17;;;;;;;7.07;3.67;;;;;;;27.82;40.06;98437.97;4962699;28;20376;-75
2021/09/09 12:56:54;;;;;;;5.93;3.90;;;;;;;27.68;40.60;98425.09;4969378;28;20114;-75
2021/09/09 12:59:22;;;;;;;6.13;3.20;;;;;;;27.78;39.92;98439.25;4958185;28;20027;-75
2021/09/09 13:01:48;;;;;;;5.33;3.83;;;;;;;28.33;39.48;98431.28;4967966;28;20066;-75
2021/09/09 13:04:17;;;;;;;9.48;3.97;;;;;;;27.93;39.15;98432.47;4966747;28;20511;-75
2021/09/09 13:06:43;;;;;;;6.47;4.15;;;;;;;27.85;40.41;98428.84;4969102;28;20085;-75
2021/09/09 13:09:08;;;;;;;11.35;4.28;;;;;;;27.78;39.13;98428.59;4957220;28;20027;-75
2021/09/09 13:11:34;;;;;;;7.75;6.30;;;;;;;27.50;39.94;98424.16;4969964;28;20226;-75
2021/09/09 13:13:59;;;;;;;8.23;3.72;;;;;;;27.32;40.20;98427.56;4973355;28;20014;-75
2021/09/09 13:16:24;;;;;;;6.60;3.38;;;;;;;27.65;40.14;98417.38;4960948;28;20390;-75
2021/09/09 13:18:50;;;;;;;8.40;3.72;;;;;;;28.26;39.20;98414.25;4969915;28;20507;-75
2021/09/09 13:21:20;;;;;;;4.32;3.40;;;;;;;28.62;38.15;98417.00;4968091;28;20376;-75
2021/09/09 13:23:46;;;;;;;4.75;4.20;;;;;;;28.71;38.48;98405.41;4965579;28;20034;-75
2021/09/09 13:26:13;;;;;;;6.53;4.00;;;;;;;28.47;38.42;98413.16;4964579;28;20034;-75
2021/09/09 13:28:40;;;;;;;4.90;3.47;;;;;;;28.38;38.20;98421.09;4959078;28;20484;-74
2021/09/09 13:31:07;;;;;;;5.28;3.80;;;;;;;28.36;39.81;98416.88;4969926;28;20120;-74
2021/09/09 13:33:32;;;;;;;7.38;3.60;;;;;;;28.82;38.32;98412.38;4968060;28;20022;-74
2021/09/09 13:35:58;;;;;;;5.13;3.88;;;;;;;29.04;37.55;98403.09;4962626;28;20033;-74
2021/09/09 13:38:23;;;;;;;8.13;4.72;;;;;;;29.41;37.17;98411.75;4960793;28;20163;-74
2021/09/09 13:40:49;;;;;;;7.00;4.47;;;;;;;28.84;37.18;98405.88;4969405;28;20050;-74
2021/09/09 13:43:14;;;;;;;7.10;3.50;;;;;;;28.60;37.21;98405.66;4956873;28;20443;-74
2021/09/09 13:45:39;;;;;;;3.70;2.95;;;;;;;28.30;37.64;98396.97;4966055;28;20027;-74
2021/09/09 13:48:05;;;;;;;5.38;4.18;;;;;;;28.20;39.03;98401.53;4963309;28;20030;-74
2021/09/09 13:50:31;;;;;;;11.45;3.92;;;;;;;28.05;38.87;98401.16;4970328;28;20113;-74
2021/09/09 13:52:58;;;;;;;6.18;3.42;;;;;;;27.58;38.83;98400.31;4973032;28;20388;-74
2021/09/09 13:55:23;;;;;;;4.97;3.58;;;;;;;27.70;39.51;98401.81;4972041;28;20026;-74
2021/09/09 13:57:48;;;;;;;12.20;4.25;;;;;;;27.61;39.36;98405.38;4973050;28;20027;-74
2021/09/09 14:00:14;;;;;;;7.70;4.10;;;;;;;27.51;39.23;98399.22;4972859;28;20075;-74
2021/09/09 14:02:39;;;;;;;6.25;3.58;;;;;;;27.65;39.66;98396.09;4965013;28;20023;-74
2021/09/09 14:05:10;;;;;;;18.77;15.05;;;;;;;27.68;39.50;98395.81;4961044;28;20371;-74
2021/09/09 14:07:35;;;;;;;6.60;3.60;;;;;;;27.79;39.13;98405.47;4953998;28;20103;-74
2021/09/09 14:10:00;;;;;;;5.72;3.55;;;;;;;27.81;39.74;98401.69;4953554;29;20118;-74
2021/09/09 14:12:25;;;;;;;5.38;3.95;;;;;;;27.89;39.43;98399.13;4953403;29;20027;-74
2021/09/09 14:14:51;;;;;;;7.65;4.22;;;;;;;27.83;39.77;98399.72;4953508;29;20475;-74
2021/09/09 14:17:17;;;;;;;7.35;3.58;;;;;;;27.85;40.51;98403.09;4953336;29;20399;-74
2021/09/09 14:19:42;;;;;;;5.82;3.75;;;;;;;27.99;40.88;98398.25;4955611;28;20030;-74
2021/09/09 14:22:07;;;;;;;7.05;3.75;;;;;;;27.57;41.92;98398.66;4974798;28;20050;-74
2021/09/09 14:24:33;;;;;;;5.25;3.83;;;;;;;27.46;42.71;98399.63;4974700;28;20059;-74
2021/09/09 14:26:58;;;;;;;15.65;4.07;;;;;;;27.67;43.46;98394.13;4975212;28;20031;-74
2021/09/09 14:29:24;;;;;;;11.57;4.50;;;;;;;27.69;42.71;98394.81;4972174;28;20027;-74
2021/09/09 14:31:49;;;;;;;8.88;3.78;;;;;;;28.13;41.36;98389.75;4959258;28;20455;-74
2021/09/09 14:34:15;;;;;;;13.25;4.18;;;;;;;28.30;41.07;98402.31;4968321;28;20023;-74
2021/09/09 14:36:40;;;;;;;8.25;3.70;;;;;;;28.58;39.88;98387.16;4976383;28;20035;-74
2021/09/09 14:39:06;;;;;;;14.07;4.47;;;;;;;28.15;41.28;98387.81;4976508;28;20030;-74
2021/09/09 14:41:31;;;;;;;10.02;3.97;;;;;;;27.98;41.97;98391.25;4976198;28;20042;-74
2021/09/09 14:43:56;;;;;;;7.90;3.78;;;;;;;28.18;42.08;98387.47;4976409;28;20550;-74
2021/09/09 14:46:22;;;;;;;11.27;4.40;;;;;;;28.47;42.30;98383.84;4976205;28;20027;-74
2021/09/09 14:48:47;;;;;;;8.25;4.03;;;;;;;28.22;42.40;98390.69;4976171;28;20023;-74
2021/09/09 14:51:13;;;;;;;10.32;4.45;;;;;;;27.32;43.27;98390.31;4976205;28;20022;-74
2021/09/09 14:53:38;;;;;;;6.85;4.22;;;;;;;27.24;45.03;98395.50;4976338;28;20049;-74
2021/09/09 14:56:04;;;;;;;8.05;4.30;;;;;;;27.01;44.96;98396.75;4976190;28;20392;-74
2021/09/09 14:58:29;;;;;;;7.25;4.50;;;;;;;26.85;46.77;98392.81;4976002;28;20047;-74
2021/09/09 15:00:55;;;;;;;7.80;4.25;;;;;;;26.54;48.39;98396.56;4976032;28;20022;-74
2021/09/09 15:03:21;;;;;;;6.30;4.28;;;;;;;26.61;48.58;98397.72;4967634;28;20027;-74
2021/09/09 15:05:47;;;;;;;8.95;3.70;;;;;;;26.27;49.19;98398.03;4958629;28;20039;-74
2021/09/09 15:08:12;;;;;;;9.73;4.22;;;;;;;26.52;49.10;98399.38;4956544;28;20152;-74
2021/09/09 15:10:38;;;;;;;6.82;3.72;;;;;;;26.42;49.82;98401.13;4956642;28;20027;-74
2021/09/09 15:13:03;;;;;;;9.55;4.13;;;;;;;26.48;49.01;98399.78;4956315;29;20023;-74
2021/09/09 15:15:28;;;;;;;4.32;3.35;;;;;;;26.98;48.22;98410.31;4956326;29;20026;-74
2021/09/09 15:17:55;;;;;;;7.88;3.58;;;;;;;26.70;48.81;98409.34;4956376;29;20493;-74
2021/09/09 15:20:21;;;;;;;10.13;4.60;;;;;;;26.74;48.36;98411.59;4962948;28;20402;-74
2021/09/09 15:22:47;;;;;;;5.60;3.80;;;;;;;26.89;48.34;98409.34;4975444;28;20034;-74
2021/09/09 15:25:13;;;;;;;5.47;3.53;;;;;;;26.99;48.37;98414.66;4975547;28;20509;-74
2021/09/09 15:27:38;;;;;;;8.55;3.70;;;;;;;26.75;48.32;98409.75;4975650;28;20027;-74
2021/09/09 15:30:10;;;;;;;6.60;4.03;;;;;;;26.40;49.13;98409.25;4975505;28;20019;-74
2021/09/09 15:32:36;;;;;;;4.47;3.53;;;;;;;26.87;49.04;98406.81;4966627;28;20027;-74
2021/09/09 15:35:02;;;;;;;8.38;3.78;;;;;;;26.62;49.31;98412.66;4963108;28;20034;-74
2021/09/09 15:37:28;;;;;;;8.50;3.70;;;;;;;26.35;50.17;98411.47;4956177;28;20031;-73
2021/09/09 15:39:53;;;;;;;6.72;3.67;;;;;;;26.36;50.54;98413.16;4956090;29;20034;-74
2021/09/09 15:42:21;;;;;;;7.55;3.50;;;;;;;26.23;49.50;98407.25;4955628;28;20086;-74
2021/09/09 15:44:47;;;;;;;4.50;3.70;;;;;;;26.28;49.64;98409.50;4954602;28;20094;-74
2021/09/09 15:47:12;;;;;;;5.25;3.63;;;;;;;25.75;50.10;98413.19;4953839;29;20034;-74